sensor_id;sensor_type;location;lat;lon;timestamp;pressure;altitude;pressure_sealevel;temperature;humidity
47522;BME280;32291;52.010;4.446;2023-11-21T00:00:43;78642.94;;;-144.67;100.00
47522;BME280;32291;52.010;4.446;2023-11-21T00:01:50;78638.66;;;-144.67;100.00
47522;BME280;32291;52.010;4.446;2023-11-21T00:02:56;78632.25;;;-144.67;100.00
47522;BME280;32291;52.010;4.446;2023-11-21T00:03:59;78634.38;;;-144.67;100.00
47522;BME280;32291;52.010;4.446;2023-11-21T00:05:11;78634.38;;;-144.67;100.00
47522;BME280;32291;52.010;4.446;2023-11-21T00:06:20;78630.09;;;-144.67;100.00
47522;BME280;32291;52.010;4.446;2023-11-21T00:07:22;78630.09;;;-144.67;100.00
47522;BME280;32291;52.010;4.446;2023-11-21T00:08:29;78627.97;;;-144.67;100.00
47522;BME280;32291;52.010;4.446;2023-11-21T00:09:32;78625.81;;;-144.67;100.00
47522;BME280;32291;52.010;4.446;2023-11-21T00:10:39;78630.09;;;-144.67;100.00
47522;BME280;32291;52.010;4.446;2023-11-21T00:11:46;78630.09;;;-144.67;100.00
47522;BME280;32291;52.010;4.446;2023-11-21T00:12:53;78621.53;;;-144.67;100.00
47522;BME280;32291;52.010;4.446;2023-11-21T00:13:56;78625.81;;;-144.67;100.00
47522;BME280;32291;52.010;4.446;2023-11-21T00:15:04;78632.25;;;-144.67;100.00
47522;BME280;32291;52.010;4.446;2023-11-21T00:16:12;78627.97;;;-144.67;100.00
47522;BME280;32291;52.010;4.446;2023-11-21T00:17:19;78632.25;;;-144.67;100.00
47522;BME280;32291;52.010;4.446;2023-11-21T00:18:26;78625.81;;;-144.67;100.00
47522;BME280;32291;52.010;4.446;2023-11-21T00:19:28;78617.25;;;-144.67;100.00
47522;BME280;32291;52.010;4.446;2023-11-21T00:20:35;78617.25;;;-144.67;100.00
47522;BME280;32291;52.010;4.446;2023-11-21T00:21:42;78619.41;;;-144.67;100.00
47522;BME280;32291;52.010;4.446;2023-11-21T00:22:47;78615.13;;;-144.67;100.00
47522;BME280;32291;52.010;4.446;2023-11-21T00:23:54;78612.97;;;-144.67;100.00
47522;BME280;32291;52.010;4.446;2023-11-21T00:25:02;78608.69;;;-144.67;100.00
47522;BME280;32291;52.010;4.446;2023-11-21T00:26:10;78600.13;;;-144.67;100.00
47522;BME280;32291;52.010;4.446;2023-11-21T00:27:17;78600.13;;;-144.67;100.00
47522;BME280;32291;52.010;4.446;2023-11-21T00:28:19;78595.84;;;-144.67;100.00
47522;BME280;32291;52.010;4.446;2023-11-21T00:29:26;78602.28;;;-144.67;100.00
47522;BME280;32291;52.010;4.446;2023-11-21T00:30:28;78598.00;;;-144.67;100.00
47522;BME280;32291;52.010;4.446;2023-11-21T00:31:35;78595.84;;;-144.67;100.00
47522;BME280;32291;52.010;4.446;2023-11-21T00:32:45;78595.84;;;-144.67;100.00
47522;BME280;32291;52.010;4.446;2023-11-21T00:33:52;78595.84;;;-144.67;100.00
47522;BME280;32291;52.010;4.446;2023-11-21T00:35:00;78589.41;;;-144.67;100.00
47522;BME280;32291;52.010;4.446;2023-11-21T00:36:08;78591.56;;;-144.67;100.00
47522;BME280;32291;52.010;4.446;2023-11-21T00:37:16;78587.28;;;-144.67;100.00
47522;BME280;32291;52.010;4.446;2023-11-21T00:38:23;78585.13;;;-144.67;100.00
47522;BME280;32291;52.010;4.446;2023-11-21T00:39:29;78589.41;;;-144.67;100.00
47522;BME280;32291;52.010;4.446;2023-11-21T00:40:32;78587.28;;;-144.67;100.00
47522;BME280;32291;52.010;4.446;2023-11-21T00:41:38;78578.72;;;-144.67;100.00
47522;BME280;32291;52.010;4.446;2023-11-21T00:42:41;78576.56;;;-144.67;100.00
47522;BME280;32291;52.010;4.446;2023-11-21T00:43:43;78572.28;;;-144.67;100.00
47522;BME280;32291;52.010;4.446;2023-11-21T00:44:50;78565.88;;;-144.67;100.00
47522;BME280;32291;52.010;4.446;2023-11-21T00:45:57;78561.59;;;-144.67;100.00
47522;BME280;32291;52.010;4.446;2023-11-21T00:47:00;78553.03;;;-144.67;100.00
47522;BME280;32291;52.010;4.446;2023-11-21T00:48:02;78561.59;;;-144.67;100.00
47522;BME280;32291;52.010;4.446;2023-11-21T00:49:06;78557.31;;;-144.67;100.00
47522;BME280;32291;52.010;4.446;2023-11-21T00:50:14;78559.44;;;-144.67;100.00
47522;BME280;32291;52.010;4.446;2023-11-21T00:51:22;78557.31;;;-144.67;100.00
47522;BME280;32291;52.010;4.446;2023-11-21T00:52:29;78550.88;;;-144.67;100.00
47522;BME280;32291;52.010;4.446;2023-11-21T00:53:36;78557.31;;;-144.67;100.00
47522;BME280;32291;52.010;4.446;2023-11-21T00:54:42;78542.31;;;-144.67;100.00
47522;BME280;32291;52.010;4.446;2023-11-21T00:55:49;78546.59;;;-144.67;100.00
47522;BME280;32291;52.010;4.446;2023-11-21T00:56:56;78540.19;;;-144.67;100.00
47522;BME280;32291;52.010;4.446;2023-11-21T00:58:03;78538.03;;;-144.67;100.00
47522;BME280;32291;52.010;4.446;2023-11-21T00:59:10;78535.91;;;-144.67;100.00
47522;BME280;32291;52.010;4.446;2023-11-21T01:00:17;78540.19;;;-144.67;100.00
47522;BME280;32291;52.010;4.446;2023-11-21T01:01:24;78533.75;;;-144.67;100.00
47522;BME280;32291;52.010;4.446;2023-11-21T01:02:31;78535.91;;;-144.67;100.00
47522;BME280;32291;52.010;4.446;2023-11-21T01:03:38;78523.03;;;-144.67;100.00
47522;BME280;32291;52.010;4.446;2023-11-21T01:04:44;78527.31;;;-144.67;100.00
47522;BME280;32291;52.010;4.446;2023-11-21T01:05:51;78525.19;;;-144.67;100.00
47522;BME280;32291;52.010;4.446;2023-11-21T01:06:58;78527.31;;;-144.67;100.00
47522;BME280;32291;52.010;4.446;2023-11-21T01:08:05;78525.19;;;-144.67;100.00
47522;BME280;32291;52.010;4.446;2023-11-21T01:09:12;78518.75;;;-144.67;100.00
47522;BME280;32291;52.010;4.446;2023-11-21T01:10:19;78523.03;;;-144.67;100.00
47522;BME280;32291;52.010;4.446;2023-11-21T01:11:26;78518.75;;;-144.67;100.00
47522;BME280;32291;52.010;4.446;2023-11-21T01:12:34;78527.31;;;-144.67;100.00
47522;BME280;32291;52.010;4.446;2023-11-21T01:13:42;78525.19;;;-144.67;100.00
47522;BME280;32291;52.010;4.446;2023-11-21T01:14:49;78518.75;;;-144.67;100.00
47522;BME280;32291;52.010;4.446;2023-11-21T01:15:57;78533.75;;;-144.67;100.00
47522;BME280;32291;52.010;4.446;2023-11-21T01:17:04;78523.03;;;-144.67;100.00
47522;BME280;32291;52.010;4.446;2023-11-21T01:18:12;78514.47;;;-144.67;100.00
47522;BME280;32291;52.010;4.446;2023-11-21T01:19:14;78505.91;;;-144.67;100.00
47522;BME280;32291;52.010;4.446;2023-11-21T01:20:20;78510.19;;;-144.67;100.00
47522;BME280;32291;52.010;4.446;2023-11-21T01:21:27;78505.91;;;-144.67;100.00
47522;BME280;32291;52.010;4.446;2023-11-21T01:22:34;78518.75;;;-144.67;100.00
47522;BME280;32291;52.010;4.446;2023-11-21T01:23:42;78516.63;;;-144.67;100.00
47522;BME280;32291;52.010;4.446;2023-11-21T01:24:48;78518.75;;;-144.67;100.00
47522;BME280;32291;52.010;4.446;2023-11-21T01:25:57;78523.03;;;-144.67;100.00
47522;BME280;32291;52.010;4.446;2023-11-21T01:27:03;78525.19;;;-144.67;100.00
47522;BME280;32291;52.010;4.446;2023-11-21T01:28:10;78523.03;;;-144.67;100.00
47522;BME280;32291;52.010;4.446;2023-11-21T01:29:13;78527.31;;;-144.67;100.00
47522;BME280;32291;52.010;4.446;2023-11-21T01:30:20;78531.63;;;-144.67;100.00
47522;BME280;32291;52.010;4.446;2023-11-21T01:31:22;78531.63;;;-144.67;100.00
47522;BME280;32291;52.010;4.446;2023-11-21T01:32:24;78538.03;;;-144.67;100.00
47522;BME280;32291;52.010;4.446;2023-11-21T01:33:25;78529.47;;;-144.67;100.00
47522;BME280;32291;52.010;4.446;2023-11-21T01:34:27;78531.63;;;-144.67;100.00
47522;BME280;32291;52.010;4.446;2023-11-21T01:35:30;78531.63;;;-144.67;100.00
47522;BME280;32291;52.010;4.446;2023-11-21T01:36:37;78538.03;;;-144.67;100.00
47522;BME280;32291;52.010;4.446;2023-11-21T01:37:43;78540.19;;;-144.67;100.00
47522;BME280;32291;52.010;4.446;2023-11-21T01:38:50;78535.91;;;-144.67;100.00
47522;BME280;32291;52.010;4.446;2023-11-21T01:39:57;78548.75;;;-144.67;100.00
47522;BME280;32291;52.010;4.446;2023-11-21T01:41:05;78548.75;;;-144.67;100.00
47522;BME280;32291;52.010;4.446;2023-11-21T01:42:13;78544.47;;;-144.67;100.00
47522;BME280;32291;52.010;4.446;2023-11-21T01:43:15;78548.75;;;-144.67;100.00
47522;BME280;32291;52.010;4.446;2023-11-21T01:44:23;78550.88;;;-144.67;100.00
47522;BME280;32291;52.010;4.446;2023-11-21T01:45:30;78546.59;;;-144.67;100.00
47522;BME280;32291;52.010;4.446;2023-11-21T01:46:40;78542.31;;;-144.67;100.00
47522;BME280;32291;52.010;4.446;2023-11-21T01:47:45;78540.19;;;-144.67;100.00
47522;BME280;32291;52.010;4.446;2023-11-21T01:48:48;78540.19;;;-144.67;100.00
47522;BME280;32291;52.010;4.446;2023-11-21T01:49:56;78544.47;;;-144.67;100.00
47522;BME280;32291;52.010;4.446;2023-11-21T01:50:58;78544.47;;;-144.67;100.00
47522;BME280;32291;52.010;4.446;2023-11-21T01:52:06;78548.75;;;-144.67;100.00
47522;BME280;32291;52.010;4.446;2023-11-21T01:53:13;78544.47;;;-144.67;100.00
47522;BME280;32291;52.010;4.446;2023-11-21T01:54:21;78540.19;;;-144.67;100.00
47522;BME280;32291;52.010;4.446;2023-11-21T01:55:29;78544.47;;;-144.67;100.00
47522;BME280;32291;52.010;4.446;2023-11-21T01:56:37;78548.75;;;-144.67;100.00
47522;BME280;32291;52.010;4.446;2023-11-21T01:57:44;78553.03;;;-144.67;100.00
47522;BME280;32291;52.010;4.446;2023-11-21T01:58:46;78553.03;;;-144.67;100.00
47522;BME280;32291;52.010;4.446;2023-11-21T01:59:49;78553.03;;;-144.67;100.00
47522;BME280;32291;52.010;4.446;2023-11-21T02:00:57;78550.88;;;-144.67;100.00
47522;BME280;32291;52.010;4.446;2023-11-21T02:02:08;78546.59;;;-144.67;100.00
47522;BME280;32291;52.010;4.446;2023-11-21T02:03:16;78546.59;;;-144.67;100.00
47522;BME280;32291;52.010;4.446;2023-11-21T02:04:18;78535.91;;;-144.67;100.00
47522;BME280;32291;52.010;4.446;2023-11-21T02:05:25;78540.19;;;-144.67;100.00
47522;BME280;32291;52.010;4.446;2023-11-21T02:06:32;78544.47;;;-144.67;100.00
47522;BME280;32291;52.010;4.446;2023-11-21T02:07:41;78540.19;;;-144.67;100.00
47522;BME280;32291;52.010;4.446;2023-11-21T02:08:51;78544.47;;;-144.67;100.00
47522;BME280;32291;52.010;4.446;2023-11-21T02:09:53;78540.19;;;-144.67;100.00
47522;BME280;32291;52.010;4.446;2023-11-21T02:10:55;78544.47;;;-144.67;100.00
47522;BME280;32291;52.010;4.446;2023-11-21T02:11:57;78535.91;;;-144.67;100.00
47522;BME280;32291;52.010;4.446;2023-11-21T02:13:07;78538.03;;;-144.67;100.00
47522;BME280;32291;52.010;4.446;2023-11-21T02:14:14;78540.19;;;-144.67;100.00
47522;BME280;32291;52.010;4.446;2023-11-21T02:15:21;78535.91;;;-144.67;100.00
47522;BME280;32291;52.010;4.446;2023-11-21T02:16:30;78538.03;;;-144.67;100.00
47522;BME280;32291;52.010;4.446;2023-11-21T02:17:33;78535.91;;;-144.67;100.00
47522;BME280;32291;52.010;4.446;2023-11-21T02:18:40;78531.63;;;-144.67;100.00
47522;BME280;32291;52.010;4.446;2023-11-21T02:19:42;78533.75;;;-144.67;100.00
47522;BME280;32291;52.010;4.446;2023-11-21T02:20:49;78538.03;;;-144.67;100.00
47522;BME280;32291;52.010;4.446;2023-11-21T02:21:52;78535.91;;;-144.67;100.00
47522;BME280;32291;52.010;4.446;2023-11-21T02:22:56;78529.47;;;-144.67;100.00
47522;BME280;32291;52.010;4.446;2023-11-21T02:24:01;78531.63;;;-144.67;100.00
47522;BME280;32291;52.010;4.446;2023-11-21T02:25:04;78527.31;;;-144.67;100.00
47522;BME280;32291;52.010;4.446;2023-11-21T02:26:11;78531.63;;;-144.67;100.00
47522;BME280;32291;52.010;4.446;2023-11-21T02:27:18;78535.91;;;-144.67;100.00
47522;BME280;32291;52.010;4.446;2023-11-21T02:28:28;78535.91;;;-144.67;100.00
47522;BME280;32291;52.010;4.446;2023-11-21T02:29:35;78535.91;;;-144.67;100.00
47522;BME280;32291;52.010;4.446;2023-11-21T02:30:42;78540.19;;;-144.67;100.00
47522;BME280;32291;52.010;4.446;2023-11-21T02:31:52;78540.19;;;-144.67;100.00
47522;BME280;32291;52.010;4.446;2023-11-21T02:33:01;78544.47;;;-144.67;100.00
47522;BME280;32291;52.010;4.446;2023-11-21T02:34:08;78548.75;;;-144.67;100.00
47522;BME280;32291;52.010;4.446;2023-11-21T02:35:15;78548.75;;;-144.67;100.00
47522;BME280;32291;52.010;4.446;2023-11-21T02:36:22;78548.75;;;-144.67;100.00
47522;BME280;32291;52.010;4.446;2023-11-21T02:37:30;78544.47;;;-144.67;100.00
47522;BME280;32291;52.010;4.446;2023-11-21T02:38:37;78540.19;;;-144.67;100.00
47522;BME280;32291;52.010;4.446;2023-11-21T02:39:38;78538.03;;;-144.67;100.00
47522;BME280;32291;52.010;4.446;2023-11-21T02:40:42;78535.91;;;-144.67;100.00
47522;BME280;32291;52.010;4.446;2023-11-21T02:41:44;78540.19;;;-144.67;100.00
47522;BME280;32291;52.010;4.446;2023-11-21T02:42:52;78540.19;;;-144.67;100.00
47522;BME280;32291;52.010;4.446;2023-11-21T02:43:59;78535.91;;;-144.67;100.00
47522;BME280;32291;52.010;4.446;2023-11-21T02:45:07;78540.19;;;-144.67;100.00
47522;BME280;32291;52.010;4.446;2023-11-21T02:46:15;78540.19;;;-144.67;100.00
47522;BME280;32291;52.010;4.446;2023-11-21T02:47:17;78535.91;;;-144.67;100.00
47522;BME280;32291;52.010;4.446;2023-11-21T02:48:23;78531.63;;;-144.67;100.00
47522;BME280;32291;52.010;4.446;2023-11-21T02:49:32;78535.91;;;-144.67;100.00
47522;BME280;32291;52.010;4.446;2023-11-21T02:50:41;78540.19;;;-144.67;100.00
47522;BME280;32291;52.010;4.446;2023-11-21T02:51:49;78535.91;;;-144.67;100.00
47522;BME280;32291;52.010;4.446;2023-11-21T02:52:56;78535.91;;;-144.67;100.00
47522;BME280;32291;52.010;4.446;2023-11-21T02:54:07;78527.31;;;-144.67;100.00
47522;BME280;32291;52.010;4.446;2023-11-21T02:55:15;78523.03;;;-144.67;100.00
47522;BME280;32291;52.010;4.446;2023-11-21T02:56:22;78531.63;;;-144.67;100.00
47522;BME280;32291;52.010;4.446;2023-11-21T02:57:29;78529.47;;;-144.67;100.00
47522;BME280;32291;52.010;4.446;2023-11-21T02:58:31;78529.47;;;-144.67;100.00
47522;BME280;32291;52.010;4.446;2023-11-21T02:59:37;78531.63;;;-144.67;100.00
47522;BME280;32291;52.010;4.446;2023-11-21T03:00:44;78527.31;;;-144.67;100.00
47522;BME280;32291;52.010;4.446;2023-11-21T03:01:51;78535.91;;;-144.67;100.00
47522;BME280;32291;52.010;4.446;2023-11-21T03:02:58;78531.63;;;-144.67;100.00
47522;BME280;32291;52.010;4.446;2023-11-21T03:04:05;78529.47;;;-144.67;100.00
47522;BME280;32291;52.010;4.446;2023-11-21T03:05:12;78535.91;;;-144.67;100.00
47522;BME280;32291;52.010;4.446;2023-11-21T03:06:19;78540.19;;;-144.67;100.00
47522;BME280;32291;52.010;4.446;2023-11-21T03:07:26;78542.31;;;-144.67;100.00
47522;BME280;32291;52.010;4.446;2023-11-21T03:08:33;78542.31;;;-144.67;100.00
47522;BME280;32291;52.010;4.446;2023-11-21T03:09:39;78538.03;;;-144.67;100.00
47522;BME280;32291;52.010;4.446;2023-11-21T03:10:41;78535.91;;;-144.67;100.00
47522;BME280;32291;52.010;4.446;2023-11-21T03:11:43;78527.31;;;-144.67;100.00
47522;BME280;32291;52.010;4.446;2023-11-21T03:12:50;78527.31;;;-144.67;100.00
47522;BME280;32291;52.010;4.446;2023-11-21T03:13:57;78523.03;;;-144.67;100.00
47522;BME280;32291;52.010;4.446;2023-11-21T03:15:06;78523.03;;;-144.67;100.00
47522;BME280;32291;52.010;4.446;2023-11-21T03:16:10;78527.31;;;-144.67;100.00
47522;BME280;32291;52.010;4.446;2023-11-21T03:17:12;78523.03;;;-144.67;100.00
47522;BME280;32291;52.010;4.446;2023-11-21T03:18:21;78523.03;;;-144.67;100.00
47522;BME280;32291;52.010;4.446;2023-11-21T03:19:31;78518.75;;;-144.67;100.00
47522;BME280;32291;52.010;4.446;2023-11-21T03:20:38;78514.47;;;-144.67;100.00
47522;BME280;32291;52.010;4.446;2023-11-21T03:21:44;78518.75;;;-144.67;100.00
47522;BME280;32291;52.010;4.446;2023-11-21T03:22:47;78523.03;;;-144.67;100.00
47522;BME280;32291;52.010;4.446;2023-11-21T03:23:54;78527.31;;;-144.67;100.00
47522;BME280;32291;52.010;4.446;2023-11-21T03:25:01;78523.03;;;-144.67;100.00
47522;BME280;32291;52.010;4.446;2023-11-21T03:26:03;78518.75;;;-144.67;100.00
47522;BME280;32291;52.010;4.446;2023-11-21T03:27:05;78523.03;;;-144.67;100.00
47522;BME280;32291;52.010;4.446;2023-11-21T03:28:13;78527.31;;;-144.67;100.00
47522;BME280;32291;52.010;4.446;2023-11-21T03:29:20;78520.91;;;-144.67;100.00
47522;BME280;32291;52.010;4.446;2023-11-21T03:30:26;78523.03;;;-144.67;100.00
47522;BME280;32291;52.010;4.446;2023-11-21T03:31:28;78523.03;;;-144.67;100.00
47522;BME280;32291;52.010;4.446;2023-11-21T03:32:35;78523.03;;;-144.67;100.00
47522;BME280;32291;52.010;4.446;2023-11-21T03:33:42;78520.91;;;-144.67;100.00
47522;BME280;32291;52.010;4.446;2023-11-21T03:34:57;78516.63;;;-144.67;100.00
47522;BME280;32291;52.010;4.446;2023-11-21T03:36:04;78523.03;;;-144.67;100.00
47522;BME280;32291;52.010;4.446;2023-11-21T03:37:11;78516.63;;;-144.67;100.00
47522;BME280;32291;52.010;4.446;2023-11-21T03:38:13;78514.47;;;-144.67;100.00
47522;BME280;32291;52.010;4.446;2023-11-21T03:39:20;78514.47;;;-144.67;100.00
47522;BME280;32291;52.010;4.446;2023-11-21T03:40:28;78523.03;;;-144.67;100.00
47522;BME280;32291;52.010;4.446;2023-11-21T03:41:35;78523.03;;;-144.67;100.00
47522;BME280;32291;52.010;4.446;2023-11-21T03:42:42;78527.31;;;-144.67;100.00
47522;BME280;32291;52.010;4.446;2023-11-21T03:43:49;78535.91;;;-144.67;100.00
47522;BME280;32291;52.010;4.446;2023-11-21T03:44:56;78535.91;;;-144.67;100.00
47522;BME280;32291;52.010;4.446;2023-11-21T03:46:04;78531.63;;;-144.67;100.00
47522;BME280;32291;52.010;4.446;2023-11-21T03:47:11;78540.19;;;-144.67;100.00
47522;BME280;32291;52.010;4.446;2023-11-21T03:48:13;78535.91;;;-144.67;100.00
47522;BME280;32291;52.010;4.446;2023-11-21T03:49:20;78535.91;;;-144.67;100.00
47522;BME280;32291;52.010;4.446;2023-11-21T03:50:22;78535.91;;;-144.67;100.00
47522;BME280;32291;52.010;4.446;2023-11-21T03:51:24;78535.91;;;-144.67;100.00
47522;BME280;32291;52.010;4.446;2023-11-21T03:52:30;78535.91;;;-144.67;100.00
47522;BME280;32291;52.010;4.446;2023-11-21T03:53:37;78535.91;;;-144.67;100.00
47522;BME280;32291;52.010;4.446;2023-11-21T03:54:39;78538.03;;;-144.67;100.00
47522;BME280;32291;52.010;4.446;2023-11-21T03:55:41;78544.47;;;-144.67;100.00
47522;BME280;32291;52.010;4.446;2023-11-21T03:56:49;78544.47;;;-144.67;100.00
47522;BME280;32291;52.010;4.446;2023-11-21T03:57:56;78544.47;;;-144.67;100.00
47522;BME280;32291;52.010;4.446;2023-11-21T03:59:03;78540.19;;;-144.67;100.00
47522;BME280;32291;52.010;4.446;2023-11-21T04:00:11;78535.91;;;-144.67;100.00
47522;BME280;32291;52.010;4.446;2023-11-21T04:01:24;78533.75;;;-144.67;100.00
47522;BME280;32291;52.010;4.446;2023-11-21T04:02:26;78535.91;;;-144.67;100.00
47522;BME280;32291;52.010;4.446;2023-11-21T04:03:34;78535.91;;;-144.67;100.00
47522;BME280;32291;52.010;4.446;2023-11-21T04:04:42;78540.19;;;-144.67;100.00
47522;BME280;32291;52.010;4.446;2023-11-21T04:05:49;78533.75;;;-144.67;100.00
47522;BME280;32291;52.010;4.446;2023-11-21T04:06:51;78540.19;;;-144.67;100.00
47522;BME280;32291;52.010;4.446;2023-11-21T04:08:01;78538.03;;;-144.67;100.00
47522;BME280;32291;52.010;4.446;2023-11-21T04:09:03;78548.75;;;-144.67;100.00
47522;BME280;32291;52.010;4.446;2023-11-21T04:10:11;78531.63;;;-144.67;100.00
47522;BME280;32291;52.010;4.446;2023-11-21T04:11:19;78527.31;;;-144.67;100.00
47522;BME280;32291;52.010;4.446;2023-11-21T04:12:26;78535.91;;;-144.67;100.00
47522;BME280;32291;52.010;4.446;2023-11-21T04:13:28;78533.75;;;-144.67;100.00
47522;BME280;32291;52.010;4.446;2023-11-21T04:14:35;78538.03;;;-144.67;100.00
47522;BME280;32291;52.010;4.446;2023-11-21T04:15:42;78540.19;;;-144.67;100.00
47522;BME280;32291;52.010;4.446;2023-11-21T04:16:49;78535.91;;;-144.67;100.00
47522;BME280;32291;52.010;4.446;2023-11-21T04:17:56;78531.63;;;-144.67;100.00
47522;BME280;32291;52.010;4.446;2023-11-21T04:19:03;78527.31;;;-144.67;100.00
47522;BME280;32291;52.010;4.446;2023-11-21T04:20:10;78527.31;;;-144.67;100.00
47522;BME280;32291;52.010;4.446;2023-11-21T04:21:13;78527.31;;;-144.67;100.00
47522;BME280;32291;52.010;4.446;2023-11-21T04:22:15;78525.19;;;-144.67;100.00
47522;BME280;32291;52.010;4.446;2023-11-21T04:23:17;78523.03;;;-144.67;100.00
47522;BME280;32291;52.010;4.446;2023-11-21T04:24:24;78516.63;;;-144.67;100.00
47522;BME280;32291;52.010;4.446;2023-11-21T04:25:30;78514.47;;;-144.67;100.00
47522;BME280;32291;52.010;4.446;2023-11-21T04:26:37;78523.03;;;-144.67;100.00
47522;BME280;32291;52.010;4.446;2023-11-21T04:27:45;78531.63;;;-144.67;100.00
47522;BME280;32291;52.010;4.446;2023-11-21T04:28:52;78533.75;;;-144.67;100.00
47522;BME280;32291;52.010;4.446;2023-11-21T04:29:59;78531.63;;;-144.67;100.00
47522;BME280;32291;52.010;4.446;2023-11-21T04:31:05;78538.03;;;-144.67;100.00
47522;BME280;32291;52.010;4.446;2023-11-21T04:32:13;78540.19;;;-144.67;100.00
47522;BME280;32291;52.010;4.446;2023-11-21T04:33:20;78535.91;;;-144.67;100.00
47522;BME280;32291;52.010;4.446;2023-11-21T04:34:23;78540.19;;;-144.67;100.00
47522;BME280;32291;52.010;4.446;2023-11-21T04:35:30;78540.19;;;-144.67;100.00
47522;BME280;32291;52.010;4.446;2023-11-21T04:36:32;78540.19;;;-144.67;100.00
47522;BME280;32291;52.010;4.446;2023-11-21T04:37:38;78546.59;;;-144.67;100.00
47522;BME280;32291;52.010;4.446;2023-11-21T04:38:41;78544.47;;;-144.67;100.00
47522;BME280;32291;52.010;4.446;2023-11-21T04:39:43;78544.47;;;-144.67;100.00
47522;BME280;32291;52.010;4.446;2023-11-21T04:40:45;78550.88;;;-144.67;100.00
47522;BME280;32291;52.010;4.446;2023-11-21T04:41:52;78546.59;;;-144.67;100.00
47522;BME280;32291;52.010;4.446;2023-11-21T04:42:59;78548.75;;;-144.67;100.00
47522;BME280;32291;52.010;4.446;2023-11-21T04:44:01;78544.47;;;-144.67;100.00
47522;BME280;32291;52.010;4.446;2023-11-21T04:45:05;78544.47;;;-144.67;100.00
47522;BME280;32291;52.010;4.446;2023-11-21T04:46:15;78542.31;;;-144.67;100.00
47522;BME280;32291;52.010;4.446;2023-11-21T04:47:22;78544.47;;;-144.67;100.00
47522;BME280;32291;52.010;4.446;2023-11-21T04:48:29;78544.47;;;-144.67;100.00
47522;BME280;32291;52.010;4.446;2023-11-21T04:49:36;78550.88;;;-144.67;100.00
47522;BME280;32291;52.010;4.446;2023-11-21T04:50:43;78550.88;;;-144.67;100.00
47522;BME280;32291;52.010;4.446;2023-11-21T04:51:45;78548.75;;;-144.67;100.00
47522;BME280;32291;52.010;4.446;2023-11-21T04:52:51;78553.03;;;-144.67;100.00
47522;BME280;32291;52.010;4.446;2023-11-21T04:53:58;78557.31;;;-144.67;100.00
47522;BME280;32291;52.010;4.446;2023-11-21T04:55:05;78557.31;;;-144.67;100.00
47522;BME280;32291;52.010;4.446;2023-11-21T04:56:16;78561.59;;;-144.67;100.00
47522;BME280;32291;52.010;4.446;2023-11-21T04:57:18;78559.44;;;-144.67;100.00
47522;BME280;32291;52.010;4.446;2023-11-21T04:58:25;78568.00;;;-144.67;100.00
47522;BME280;32291;52.010;4.446;2023-11-21T04:59:32;78568.00;;;-144.67;100.00
47522;BME280;32291;52.010;4.446;2023-11-21T05:00:39;78565.88;;;-144.67;100.00
47522;BME280;32291;52.010;4.446;2023-11-21T05:01:45;78568.00;;;-144.67;100.00
47522;BME280;32291;52.010;4.446;2023-11-21T05:02:52;78578.72;;;-144.67;100.00
47522;BME280;32291;52.010;4.446;2023-11-21T05:03:59;78576.56;;;-144.67;100.00
47522;BME280;32291;52.010;4.446;2023-11-21T05:05:02;78583.00;;;-144.67;100.00
47522;BME280;32291;52.010;4.446;2023-11-21T05:06:12;78585.13;;;-144.67;100.00
47522;BME280;32291;52.010;4.446;2023-11-21T05:07:14;78583.00;;;-144.67;100.00
47522;BME280;32291;52.010;4.446;2023-11-21T05:08:23;78591.56;;;-144.67;100.00
47522;BME280;32291;52.010;4.446;2023-11-21T05:09:29;78595.84;;;-144.67;100.00
47522;BME280;32291;52.010;4.446;2023-11-21T05:10:38;78606.56;;;-144.67;100.00
47522;BME280;32291;52.010;4.446;2023-11-21T05:11:46;78617.25;;;-144.67;100.00
47522;BME280;32291;52.010;4.446;2023-11-21T05:12:53;78623.69;;;-144.67;100.00
47522;BME280;32291;52.010;4.446;2023-11-21T05:13:55;78630.09;;;-144.67;100.00
47522;BME280;32291;52.010;4.446;2023-11-21T05:15:07;78640.81;;;-144.67;100.00
47522;BME280;32291;52.010;4.446;2023-11-21T05:16:17;78645.09;;;-144.67;100.00
47522;BME280;32291;52.010;4.446;2023-11-21T05:17:25;78655.81;;;-144.67;100.00
47522;BME280;32291;52.010;4.446;2023-11-21T05:18:32;78664.38;;;-144.67;100.00
47522;BME280;32291;52.010;4.446;2023-11-21T05:19:38;78685.78;;;-144.67;100.00
47522;BME280;32291;52.010;4.446;2023-11-21T05:20:46;78690.06;;;-144.67;100.00
47522;BME280;32291;52.010;4.446;2023-11-21T05:21:54;78696.47;;;-144.67;100.00
47522;BME280;32291;52.010;4.446;2023-11-21T05:23:00;78690.06;;;-144.67;100.00
47522;BME280;32291;52.010;4.446;2023-11-21T05:24:07;78692.19;;;-144.67;100.00
47522;BME280;32291;52.010;4.446;2023-11-21T05:25:15;78685.78;;;-144.67;100.00
47522;BME280;32291;52.010;4.446;2023-11-21T05:26:18;78692.19;;;-144.67;100.00
47522;BME280;32291;52.010;4.446;2023-11-21T05:27:25;78685.78;;;-144.67;100.00
47522;BME280;32291;52.010;4.446;2023-11-21T05:28:32;78677.22;;;-144.67;100.00
47522;BME280;32291;52.010;4.446;2023-11-21T05:29:39;78681.50;;;-144.67;100.00
47522;BME280;32291;52.010;4.446;2023-11-21T05:30:46;78687.91;;;-144.67;100.00
47522;BME280;32291;52.010;4.446;2023-11-21T05:31:53;78690.06;;;-144.67;100.00
47522;BME280;32291;52.010;4.446;2023-11-21T05:32:59;78702.91;;;-144.67;100.00
47522;BME280;32291;52.010;4.446;2023-11-21T05:34:06;78711.47;;;-144.67;100.00
47522;BME280;32291;52.010;4.446;2023-11-21T05:35:13;78726.47;;;-144.67;100.00
47522;BME280;32291;52.010;4.446;2023-11-21T05:36:22;78728.59;;;-144.67;100.00
47522;BME280;32291;52.010;4.446;2023-11-21T05:37:29;78730.75;;;-144.67;100.00